sensor_id;sensor_type;location;lat;lon;timestamp;P1;durP1;ratioP1;P2;durP2;ratioP2
9789;SDS011;4934;50.852;8.098;2023-04-24T00:00:33;2.95;;;0.70;;
9789;SDS011;4934;50.852;8.098;2023-04-24T00:02:58;2.28;;;1.35;;
9789;SDS011;4934;50.852;8.098;2023-04-24T00:05:24;0.93;;;0.70;;
9789;SDS011;4934;50.852;8.098;2023-04-24T00:07:50;2.55;;;0.70;;
9789;SDS011;4934;50.852;8.098;2023-04-24T00:12:44;0.95;;;0.70;;
9789;SDS011;4934;50.852;8.098;2023-04-24T00:15:10;4.32;;;0.77;;
9789;SDS011;4934;50.852;8.098;2023-04-24T00:17:36;3.33;;;0.80;;
9789;SDS011;4934;50.852;8.098;2023-04-24T00:20:02;0.95;;;0.60;;
9789;SDS011;4934;50.852;8.098;2023-04-24T00:22:29;1.98;;;0.70;;
9789;SDS011;4934;50.852;8.098;2023-04-24T00:24:56;3.08;;;0.70;;
9789;SDS011;4934;50.852;8.098;2023-04-24T00:27:22;0.75;;;0.60;;
9789;SDS011;4934;50.852;8.098;2023-04-24T00:29:48;3.70;;;0.77;;
9789;SDS011;4934;50.852;8.098;2023-04-24T00:32:13;0.85;;;0.60;;
9789;SDS011;4934;50.852;8.098;2023-04-24T00:34:39;0.93;;;0.75;;
9789;SDS011;4934;50.852;8.098;2023-04-24T00:37:05;0.60;;;0.50;;
9789;SDS011;4934;50.852;8.098;2023-04-24T00:39:31;5.00;;;1.00;;
9789;SDS011;4934;50.852;8.098;2023-04-24T00:41:56;0.70;;;0.70;;
9789;SDS011;4934;50.852;8.098;2023-04-24T00:44:22;0.93;;;0.73;;
9789;SDS011;4934;50.852;8.098;2023-04-24T00:46:48;4.97;;;0.93;;
9789;SDS011;4934;50.852;8.098;2023-04-24T00:49:22;1.10;;;0.80;;
9789;SDS011;4934;50.852;8.098;2023-04-24T00:51:47;1.20;;;0.75;;
9789;SDS011;4934;50.852;8.098;2023-04-24T00:54:14;0.98;;;0.73;;
9789;SDS011;4934;50.852;8.098;2023-04-24T00:56:40;1.55;;;0.70;;
9789;SDS011;4934;50.852;8.098;2023-04-24T00:59:07;1.80;;;0.63;;
9789;SDS011;4934;50.852;8.098;2023-04-24T01:01:33;1.75;;;1.27;;
9789;SDS011;4934;50.852;8.098;2023-04-24T01:03:59;0.88;;;0.77;;
9789;SDS011;4934;50.852;8.098;2023-04-24T01:06:27;1.15;;;0.77;;
9789;SDS011;4934;50.852;8.098;2023-04-24T01:08:53;2.33;;;0.98;;
9789;SDS011;4934;50.852;8.098;2023-04-24T01:11:20;1.50;;;1.00;;
9789;SDS011;4934;50.852;8.098;2023-04-24T01:13:47;1.65;;;0.85;;
9789;SDS011;4934;50.852;8.098;2023-04-24T01:16:13;0.82;;;0.80;;
9789;SDS011;4934;50.852;8.098;2023-04-24T01:18:42;1.08;;;0.80;;
9789;SDS011;4934;50.852;8.098;2023-04-24T01:21:09;3.22;;;0.88;;
9789;SDS011;4934;50.852;8.098;2023-04-24T01:23:38;2.30;;;1.10;;
9789;SDS011;4934;50.852;8.098;2023-04-24T01:26:04;4.75;;;1.27;;
9789;SDS011;4934;50.852;8.098;2023-04-24T01:28:29;1.40;;;0.82;;
9789;SDS011;4934;50.852;8.098;2023-04-24T01:30:55;1.80;;;1.10;;
9789;SDS011;4934;50.852;8.098;2023-04-24T01:33:21;3.63;;;1.30;;
9789;SDS011;4934;50.852;8.098;2023-04-24T01:35:47;2.67;;;1.00;;
9789;SDS011;4934;50.852;8.098;2023-04-24T01:38:13;2.25;;;0.90;;
9789;SDS011;4934;50.852;8.098;2023-04-24T01:40:39;5.15;;;1.10;;
9789;SDS011;4934;50.852;8.098;2023-04-24T01:43:05;2.33;;;1.20;;
9789;SDS011;4934;50.852;8.098;2023-04-24T01:45:31;2.65;;;0.80;;
9789;SDS011;4934;50.852;8.098;2023-04-24T01:47:56;1.90;;;0.85;;
9789;SDS011;4934;50.852;8.098;2023-04-24T01:50:22;1.35;;;0.90;;
9789;SDS011;4934;50.852;8.098;2023-04-24T01:52:48;3.70;;;0.70;;
9789;SDS011;4934;50.852;8.098;2023-04-24T01:55:13;1.08;;;0.73;;
9789;SDS011;4934;50.852;8.098;2023-04-24T01:57:39;2.03;;;0.98;;
9789;SDS011;4934;50.852;8.098;2023-04-24T02:00:05;2.20;;;0.85;;
9789;SDS011;4934;50.852;8.098;2023-04-24T02:02:31;0.82;;;0.70;;
9789;SDS011;4934;50.852;8.098;2023-04-24T02:04:57;1.27;;;0.70;;
9789;SDS011;4934;50.852;8.098;2023-04-24T02:07:23;3.28;;;0.52;;
9789;SDS011;4934;50.852;8.098;2023-04-24T02:09:49;2.10;;;0.75;;
9789;SDS011;4934;50.852;8.098;2023-04-24T02:12:15;1.08;;;0.60;;
9789;SDS011;4934;50.852;8.098;2023-04-24T02:17:09;0.98;;;0.80;;
9789;SDS011;4934;50.852;8.098;2023-04-24T02:19:38;1.17;;;0.70;;
9789;SDS011;4934;50.852;8.098;2023-04-24T02:22:04;2.75;;;0.80;;
9789;SDS011;4934;50.852;8.098;2023-04-24T02:24:29;1.42;;;0.70;;
9789;SDS011;4934;50.852;8.098;2023-04-24T02:26:55;1.30;;;0.80;;
9789;SDS011;4934;50.852;8.098;2023-04-24T02:29:21;1.05;;;0.73;;
9789;SDS011;4934;50.852;8.098;2023-04-24T02:31:46;2.70;;;0.80;;
9789;SDS011;4934;50.852;8.098;2023-04-24T02:34:12;2.03;;;0.93;;
9789;SDS011;4934;50.852;8.098;2023-04-24T02:36:38;1.52;;;0.82;;
9789;SDS011;4934;50.852;8.098;2023-04-24T02:39:03;1.50;;;1.20;;
9789;SDS011;4934;50.852;8.098;2023-04-24T02:41:29;4.07;;;1.00;;
9789;SDS011;4934;50.852;8.098;2023-04-24T02:43:57;1.83;;;0.90;;
9789;SDS011;4934;50.852;8.098;2023-04-24T02:46:23;1.38;;;0.95;;
9789;SDS011;4934;50.852;8.098;2023-04-24T02:48:49;1.42;;;0.90;;
9789;SDS011;4934;50.852;8.098;2023-04-24T02:51:14;1.52;;;0.98;;
9789;SDS011;4934;50.852;8.098;2023-04-24T02:53:40;2.53;;;1.15;;
9789;SDS011;4934;50.852;8.098;2023-04-24T02:56:06;1.42;;;1.02;;
9789;SDS011;4934;50.852;8.098;2023-04-24T02:58:31;2.50;;;1.10;;
9789;SDS011;4934;50.852;8.098;2023-04-24T03:00:57;1.77;;;1.20;;
9789;SDS011;4934;50.852;8.098;2023-04-24T03:03:22;1.92;;;1.00;;
9789;SDS011;4934;50.852;8.098;2023-04-24T03:05:48;1.73;;;1.17;;
9789;SDS011;4934;50.852;8.098;2023-04-24T03:08:15;2.10;;;1.13;;
9789;SDS011;4934;50.852;8.098;2023-04-24T03:10:41;1.55;;;1.17;;
9789;SDS011;4934;50.852;8.098;2023-04-24T03:13:06;2.47;;;1.20;;
9789;SDS011;4934;50.852;8.098;2023-04-24T03:15:32;2.13;;;1.08;;
9789;SDS011;4934;50.852;8.098;2023-04-24T03:17:57;1.20;;;1.02;;
9789;SDS011;4934;50.852;8.098;2023-04-24T03:20:23;3.63;;;1.60;;
9789;SDS011;4934;50.852;8.098;2023-04-24T03:22:49;2.78;;;1.50;;
9789;SDS011;4934;50.852;8.098;2023-04-24T03:25:15;4.95;;;1.90;;
9789;SDS011;4934;50.852;8.098;2023-04-24T03:27:40;5.82;;;2.97;;
9789;SDS011;4934;50.852;8.098;2023-04-24T03:30:06;6.00;;;2.08;;
9789;SDS011;4934;50.852;8.098;2023-04-24T03:32:32;2.58;;;2.00;;
9789;SDS011;4934;50.852;8.098;2023-04-24T03:34:58;2.67;;;1.90;;
9789;SDS011;4934;50.852;8.098;2023-04-24T03:37:25;2.95;;;1.83;;
9789;SDS011;4934;50.852;8.098;2023-04-24T03:39:51;3.67;;;2.50;;
9789;SDS011;4934;50.852;8.098;2023-04-24T03:42:17;3.45;;;2.53;;
9789;SDS011;4934;50.852;8.098;2023-04-24T03:44:42;5.03;;;2.28;;
9789;SDS011;4934;50.852;8.098;2023-04-24T03:47:08;3.33;;;2.00;;
9789;SDS011;4934;50.852;8.098;2023-04-24T03:49:34;5.50;;;2.63;;
9789;SDS011;4934;50.852;8.098;2023-04-24T03:51:59;5.68;;;2.53;;
9789;SDS011;4934;50.852;8.098;2023-04-24T03:54:25;3.00;;;2.20;;
9789;SDS011;4934;50.852;8.098;2023-04-24T03:56:51;4.65;;;2.47;;
9789;SDS011;4934;50.852;8.098;2023-04-24T03:59:16;6.88;;;2.70;;
9789;SDS011;4934;50.852;8.098;2023-04-24T04:01:42;4.28;;;2.78;;
9789;SDS011;4934;50.852;8.098;2023-04-24T04:04:07;3.80;;;2.60;;
9789;SDS011;4934;50.852;8.098;2023-04-24T04:06:33;4.75;;;2.53;;
9789;SDS011;4934;50.852;8.098;2023-04-24T04:08:59;3.80;;;2.47;;
9789;SDS011;4934;50.852;8.098;2023-04-24T04:11:25;5.57;;;2.50;;
9789;SDS011;4934;50.852;8.098;2023-04-24T04:13:51;3.47;;;2.42;;
9789;SDS011;4934;50.852;8.098;2023-04-24T04:16:17;6.00;;;3.63;;
9789;SDS011;4934;50.852;8.098;2023-04-24T04:18:43;5.47;;;2.78;;
9789;SDS011;4934;50.852;8.098;2023-04-24T04:21:09;4.90;;;2.72;;
9789;SDS011;4934;50.852;8.098;2023-04-24T04:23:35;5.45;;;2.90;;
9789;SDS011;4934;50.852;8.098;2023-04-24T04:26:01;4.78;;;2.47;;
9789;SDS011;4934;50.852;8.098;2023-04-24T04:28:28;5.00;;;3.08;;
9789;SDS011;4934;50.852;8.098;2023-04-24T04:30:55;5.63;;;3.20;;
9789;SDS011;4934;50.852;8.098;2023-04-24T04:33:22;5.18;;;3.50;;
9789;SDS011;4934;50.852;8.098;2023-04-24T04:35:49;11.50;;;3.22;;
9789;SDS011;4934;50.852;8.098;2023-04-24T04:38:18;5.25;;;3.00;;
9789;SDS011;4934;50.852;8.098;2023-04-24T04:40:44;4.25;;;2.80;;
9789;SDS011;4934;50.852;8.098;2023-04-24T04:43:10;4.57;;;2.72;;
9789;SDS011;4934;50.852;8.098;2023-04-24T04:45:38;5.90;;;2.92;;
9789;SDS011;4934;50.852;8.098;2023-04-24T04:48:05;5.40;;;3.55;;
9789;SDS011;4934;50.852;8.098;2023-04-24T04:50:32;5.72;;;3.20;;
9789;SDS011;4934;50.852;8.098;2023-04-24T04:52:58;5.68;;;2.85;;
9789;SDS011;4934;50.852;8.098;2023-04-24T04:55:24;6.28;;;3.70;;
9789;SDS011;4934;50.852;8.098;2023-04-24T04:57:51;8.95;;;4.13;;
9789;SDS011;4934;50.852;8.098;2023-04-24T05:00:17;8.13;;;4.45;;
9789;SDS011;4934;50.852;8.098;2023-04-24T05:02:43;7.75;;;5.22;;
9789;SDS011;4934;50.852;8.098;2023-04-24T05:05:09;8.73;;;4.68;;
9789;SDS011;4934;50.852;8.098;2023-04-24T05:07:35;7.78;;;4.45;;
9789;SDS011;4934;50.852;8.098;2023-04-24T05:10:01;8.55;;;5.00;;
9789;SDS011;4934;50.852;8.098;2023-04-24T05:12:26;8.68;;;4.22;;
9789;SDS011;4934;50.852;8.098;2023-04-24T05:14:52;9.85;;;4.85;;
9789;SDS011;4934;50.852;8.098;2023-04-24T05:17:18;11.13;;;4.65;;
9789;SDS011;4934;50.852;8.098;2023-04-24T05:19:44;9.02;;;4.78;;
9789;SDS011;4934;50.852;8.098;2023-04-24T05:22:09;10.63;;;6.25;;
9789;SDS011;4934;50.852;8.098;2023-04-24T05:24:36;12.20;;;6.15;;
9789;SDS011;4934;50.852;8.098;2023-04-24T05:27:02;10.13;;;5.07;;
9789;SDS011;4934;50.852;8.098;2023-04-24T05:29:29;12.57;;;5.90;;
9789;SDS011;4934;50.852;8.098;2023-04-24T05:31:56;9.55;;;5.80;;
9789;SDS011;4934;50.852;8.098;2023-04-24T05:34:22;7.95;;;5.10;;
9789;SDS011;4934;50.852;8.098;2023-04-24T05:36:48;12.15;;;5.47;;
9789;SDS011;4934;50.852;8.098;2023-04-24T05:39:15;7.97;;;4.60;;
9789;SDS011;4934;50.852;8.098;2023-04-24T05:41:41;10.43;;;5.43;;
9789;SDS011;4934;50.852;8.098;2023-04-24T05:44:07;7.65;;;4.80;;
9789;SDS011;4934;50.852;8.098;2023-04-24T05:46:33;9.02;;;5.45;;
9789;SDS011;4934;50.852;8.098;2023-04-24T05:48:58;13.07;;;5.28;;
9789;SDS011;4934;50.852;8.098;2023-04-24T05:51:24;7.63;;;4.85;;
9789;SDS011;4934;50.852;8.098;2023-04-24T05:53:50;8.30;;;4.68;;
9789;SDS011;4934;50.852;8.098;2023-04-24T05:56:16;9.55;;;5.03;;
9789;SDS011;4934;50.852;8.098;2023-04-24T05:58:42;9.38;;;5.57;;
9789;SDS011;4934;50.852;8.098;2023-04-24T06:01:08;11.52;;;5.57;;
9789;SDS011;4934;50.852;8.098;2023-04-24T06:03:34;8.60;;;5.25;;
9789;SDS011;4934;50.852;8.098;2023-04-24T06:06:00;9.13;;;5.20;;
9789;SDS011;4934;50.852;8.098;2023-04-24T06:08:25;8.77;;;5.05;;
9789;SDS011;4934;50.852;8.098;2023-04-24T06:10:51;10.13;;;5.38;;
9789;SDS011;4934;50.852;8.098;2023-04-24T06:13:17;9.80;;;5.00;;
9789;SDS011;4934;50.852;8.098;2023-04-24T06:15:43;10.90;;;5.32;;
9789;SDS011;4934;50.852;8.098;2023-04-24T06:18:09;11.48;;;5.28;;
9789;SDS011;4934;50.852;8.098;2023-04-24T06:23:03;8.68;;;4.95;;
9789;SDS011;4934;50.852;8.098;2023-04-24T06:25:29;7.88;;;5.00;;
9789;SDS011;4934;50.852;8.098;2023-04-24T06:27:55;11.70;;;5.43;;
9789;SDS011;4934;50.852;8.098;2023-04-24T06:30:21;8.55;;;5.05;;
9789;SDS011;4934;50.852;8.098;2023-04-24T06:32:47;12.48;;;5.10;;
9789;SDS011;4934;50.852;8.098;2023-04-24T06:35:13;8.18;;;4.72;;
9789;SDS011;4934;50.852;8.098;2023-04-24T06:37:39;9.10;;;5.05;;
9789;SDS011;4934;50.852;8.098;2023-04-24T06:40:05;7.10;;;4.35;;
9789;SDS011;4934;50.852;8.098;2023-04-24T06:42:31;9.63;;;5.15;;
9789;SDS011;4934;50.852;8.098;2023-04-24T06:44:57;10.60;;;5.45;;
9789;SDS011;4934;50.852;8.098;2023-04-24T06:47:23;10.27;;;5.50;;
9789;SDS011;4934;50.852;8.098;2023-04-24T06:49:48;8.55;;;5.20;;
9789;SDS011;4934;50.852;8.098;2023-04-24T06:52:15;8.75;;;5.22;;
9789;SDS011;4934;50.852;8.098;2023-04-24T06:54:41;9.85;;;5.70;;
9789;SDS011;4934;50.852;8.098;2023-04-24T06:57:07;7.85;;;4.85;;
9789;SDS011;4934;50.852;8.098;2023-04-24T06:59:33;9.65;;;4.88;;
9789;SDS011;4934;50.852;8.098;2023-04-24T07:01:59;10.18;;;5.43;;
9789;SDS011;4934;50.852;8.098;2023-04-24T07:04:24;8.70;;;5.45;;
9789;SDS011;4934;50.852;8.098;2023-04-24T07:06:50;9.90;;;5.40;;
9789;SDS011;4934;50.852;8.098;2023-04-24T07:09:16;11.23;;;6.55;;
9789;SDS011;4934;50.852;8.098;2023-04-24T07:11:43;15.07;;;6.47;;
9789;SDS011;4934;50.852;8.098;2023-04-24T07:14:09;15.05;;;6.22;;
9789;SDS011;4934;50.852;8.098;2023-04-24T07:16:35;11.60;;;6.07;;
9789;SDS011;4934;50.852;8.098;2023-04-24T07:19:00;12.90;;;6.22;;
9789;SDS011;4934;50.852;8.098;2023-04-24T07:21:26;11.90;;;6.78;;
9789;SDS011;4934;50.852;8.098;2023-04-24T07:23:52;11.68;;;6.55;;
9789;SDS011;4934;50.852;8.098;2023-04-24T07:26:18;9.75;;;6.28;;
9789;SDS011;4934;50.852;8.098;2023-04-24T07:28:45;12.70;;;6.50;;
9789;SDS011;4934;50.852;8.098;2023-04-24T07:31:11;14.85;;;7.00;;
9789;SDS011;4934;50.852;8.098;2023-04-24T07:33:37;11.48;;;6.13;;
9789;SDS011;4934;50.852;8.098;2023-04-24T07:36:03;13.52;;;6.45;;
9789;SDS011;4934;50.852;8.098;2023-04-24T07:38:29;10.13;;;6.32;;
9789;SDS011;4934;50.852;8.098;2023-04-24T07:40:55;13.80;;;6.22;;
9789;SDS011;4934;50.852;8.098;2023-04-24T07:43:20;10.45;;;5.88;;
9789;SDS011;4934;50.852;8.098;2023-04-24T07:45:47;13.23;;;6.47;;
9789;SDS011;4934;50.852;8.098;2023-04-24T07:48:12;12.40;;;6.00;;
9789;SDS011;4934;50.852;8.098;2023-04-24T07:50:41;11.50;;;6.22;;
9789;SDS011;4934;50.852;8.098;2023-04-24T07:53:07;11.25;;;5.32;;
9789;SDS011;4934;50.852;8.098;2023-04-24T07:55:32;9.68;;;5.85;;
9789;SDS011;4934;50.852;8.098;2023-04-24T07:57:58;10.32;;;6.35;;
9789;SDS011;4934;50.852;8.098;2023-04-24T08:00:24;10.38;;;5.70;;
9789;SDS011;4934;50.852;8.098;2023-04-24T08:02:49;11.70;;;5.32;;
9789;SDS011;4934;50.852;8.098;2023-04-24T08:05:15;11.05;;;5.60;;
9789;SDS011;4934;50.852;8.098;2023-04-24T08:07:40;11.98;;;6.03;;
9789;SDS011;4934;50.852;8.098;2023-04-24T08:10:09;9.55;;;5.00;;
9789;SDS011;4934;50.852;8.098;2023-04-24T08:12:35;8.83;;;5.57;;
9789;SDS011;4934;50.852;8.098;2023-04-24T08:15:01;10.80;;;5.28;;
9789;SDS011;4934;50.852;8.098;2023-04-24T08:17:27;11.25;;;5.20;;
9789;SDS011;4934;50.852;8.098;2023-04-24T08:19:53;6.72;;;4.60;;
9789;SDS011;4934;50.852;8.098;2023-04-24T08:22:26;7.22;;;4.97;;
9789;SDS011;4934;50.852;8.098;2023-04-24T08:24:52;8.07;;;5.03;;
9789;SDS011;4934;50.852;8.098;2023-04-24T08:27:18;13.18;;;4.18;;
9789;SDS011;4934;50.852;8.098;2023-04-24T08:29:43;7.93;;;4.32;;
9789;SDS011;4934;50.852;8.098;2023-04-24T08:32:09;9.18;;;5.00;;
9789;SDS011;4934;50.852;8.098;2023-04-24T08:34:35;12.80;;;4.40;;
9789;SDS011;4934;50.852;8.098;2023-04-24T08:37:00;8.10;;;4.80;;
9789;SDS011;4934;50.852;8.098;2023-04-24T08:39:27;8.27;;;4.65;;
9789;SDS011;4934;50.852;8.098;2023-04-24T08:41:53;11.40;;;5.72;;
9789;SDS011;4934;50.852;8.098;2023-04-24T08:44:19;11.02;;;5.40;;
9789;SDS011;4934;50.852;8.098;2023-04-24T08:46:45;11.40;;;5.53;;
9789;SDS011;4934;50.852;8.098;2023-04-24T08:49:13;12.40;;;5.90;;
9789;SDS011;4934;50.852;8.098;2023-04-24T08:51:43;9.85;;;5.25;;
9789;SDS011;4934;50.852;8.098;2023-04-24T08:54:11;10.93;;;5.78;;
9789;SDS011;4934;50.852;8.098;2023-04-24T08:56:38;9.00;;;5.18;;
9789;SDS011;4934;50.852;8.098;2023-04-24T08:59:08;8.73;;;5.25;;
9789;SDS011;4934;50.852;8.098;2023-04-24T09:01:34;7.32;;;4.28;;
9789;SDS011;4934;50.852;8.098;2023-04-24T09:04:02;7.15;;;3.97;;
9789;SDS011;4934;50.852;8.098;2023-04-24T09:06:29;6.50;;;4.35;;
9789;SDS011;4934;50.852;8.098;2023-04-24T09:08:55;7.55;;;3.75;;
9789;SDS011;4934;50.852;8.098;2023-04-24T09:11:24;7.55;;;4.78;;
9789;SDS011;4934;50.852;8.098;2023-04-24T09:13:51;6.60;;;4.03;;
9789;SDS011;4934;50.852;8.098;2023-04-24T09:16:18;5.60;;;3.42;;
9789;SDS011;4934;50.852;8.098;2023-04-24T09:18:45;4.63;;;3.05;;
9789;SDS011;4934;50.852;8.098;2023-04-24T09:21:11;5.03;;;2.80;;
9789;SDS011;4934;50.852;8.098;2023-04-24T09:23:36;2.60;;;1.55;;
9789;SDS011;4934;50.852;8.098;2023-04-24T09:26:03;2.53;;;1.40;;
9789;SDS011;4934;50.852;8.098;2023-04-24T09:28:34;1.95;;;1.20;;
9789;SDS011;4934;50.852;8.098;2023-04-24T09:31:14;2.47;;;1.70;;
9789;SDS011;4934;50.852;8.098;2023-04-24T09:36:28;2.40;;;1.38;;
9789;SDS011;4934;50.852;8.098;2023-04-24T09:39:01;1.35;;;1.15;;
9789;SDS011;4934;50.852;8.098;2023-04-24T09:41:28;1.67;;;0.90;;
9789;SDS011;4934;50.852;8.098;2023-04-24T09:43:54;2.88;;;1.88;;
9789;SDS011;4934;50.852;8.098;2023-04-24T09:46:20;1.33;;;0.80;;
9789;SDS011;4934;50.852;8.098;2023-04-24T09:48:47;1.33;;;0.70;;
9789;SDS011;4934;50.852;8.098;2023-04-24T09:51:13;3.53;;;1.52;;
9789;SDS011;4934;50.852;8.098;2023-04-24T09:53:44;1.30;;;0.80;;
9789;SDS011;4934;50.852;8.098;2023-04-24T09:56:11;2.35;;;0.70;;
9789;SDS011;4934;50.852;8.098;2023-04-24T09:58:38;4.13;;;0.98;;
9789;SDS011;4934;50.852;8.098;2023-04-24T10:01:04;1.83;;;1.65;;
9789;SDS011;4934;50.852;8.098;2023-04-24T10:03:31;0.68;;;0.60;;
9789;SDS011;4934;50.852;8.098;2023-04-24T10:06:00;0.50;;;0.50;;
9789;SDS011;4934;50.852;8.098;2023-04-24T10:08:32;1.50;;;1.13;;
9789;SDS011;4934;50.852;8.098;2023-04-24T10:10:59;0.57;;;0.57;;
9789;SDS011;4934;50.852;8.098;2023-04-24T10:13:26;0.85;;;0.50;;
9789;SDS011;4934;50.852;8.098;2023-04-24T10:15:52;1.02;;;0.50;;
9789;SDS011;4934;50.852;8.098;2023-04-24T10:18:19;0.40;;;0.40;;
9789;SDS011;4934;50.852;8.098;2023-04-24T10:20:46;0.60;;;0.60;;
9789;SDS011;4934;50.852;8.098;2023-04-24T10:23:12;0.65;;;0.55;;
9789;SDS011;4934;50.852;8.098;2023-04-24T10:25:38;5.03;;;1.60;;
9789;SDS011;4934;50.852;8.098;2023-04-24T10:28:04;1.02;;;0.70;;
9789;SDS011;4934;50.852;8.098;2023-04-24T10:30:33;1.80;;;0.60;;
9789;SDS011;4934;50.852;8.098;2023-04-24T10:33:02;2.17;;;0.93;;
9789;SDS011;4934;50.852;8.098;2023-04-24T10:35:33;1.02;;;0.90;;
9789;SDS011;4934;50.852;8.098;2023-04-24T10:38:05;1.30;;;0.90;;
9789;SDS011;4934;50.852;8.098;2023-04-24T10:40:34;1.33;;;1.10;;
9789;SDS011;4934;50.852;8.098;2023-04-24T10:43:07;2.13;;;1.10;;
9789;SDS011;4934;50.852;8.098;2023-04-24T10:45:36;1.85;;;0.95;;
9789;SDS011;4934;50.852;8.098;2023-04-24T10:48:05;2.67;;;1.10;;
9789;SDS011;4934;50.852;8.098;2023-04-24T10:50:51;1.38;;;0.95;;
9789;SDS011;4934;50.852;8.098;2023-04-24T10:53:24;1.92;;;1.35;;
9789;SDS011;4934;50.852;8.098;2023-04-24T10:55:57;2.83;;;1.30;;
9789;SDS011;4934;50.852;8.098;2023-04-24T10:58:38;1.95;;;1.40;;
9789;SDS011;4934;50.852;8.098;2023-04-24T11:01:29;1.77;;;1.40;;
9789;SDS011;4934;50.852;8.098;2023-04-24T11:03:57;3.08;;;1.80;;
9789;SDS011;4934;50.852;8.098;2023-04-24T11:06:29;4.38;;;2.00;;
9789;SDS011;4934;50.852;8.098;2023-04-24T11:08:59;3.25;;;2.10;;
9789;SDS011;4934;50.852;8.098;2023-04-24T11:11:29;3.45;;;1.80;;
9789;SDS011;4934;50.852;8.098;2023-04-24T11:19:09;2.70;;;1.70;;
9789;SDS011;4934;50.852;8.098;2023-04-24T11:34:59;6.03;;;3.58;;
9789;SDS011;4934;50.852;8.098;2023-04-24T11:37:26;4.10;;;3.15;;
9789;SDS011;4934;50.852;8.098;2023-04-24T11:39:57;5.82;;;3.10;;
9789;SDS011;4934;50.852;8.098;2023-04-24T11:42:23;8.35;;;4.95;;
9789;SDS011;4934;50.852;8.098;2023-04-24T11:44:51;5.78;;;3.22;;
9789;SDS011;4934;50.852;8.098;2023-04-24T11:47:18;12.25;;;5.03;;
9789;SDS011;4934;50.852;8.098;2023-04-24T11:49:44;10.90;;;5.30;;
9789;SDS011;4934;50.852;8.098;2023-04-24T11:52:10;12.77;;;6.82;;
9789;SDS011;4934;50.852;8.098;2023-04-24T11:54:36;6.72;;;4.47;;
9789;SDS011;4934;50.852;8.098;2023-04-24T11:57:05;20.83;;;8.27;;
9789;SDS011;4934;50.852;8.098;2023-04-24T11:59:35;11.30;;;5.75;;
9789;SDS011;4934;50.852;8.098;2023-04-24T12:02:02;7.75;;;4.28;;
9789;SDS011;4934;50.852;8.098;2023-04-24T12:04:37;7.45;;;4.43;;
9789;SDS011;4934;50.852;8.098;2023-04-24T12:07:04;11.48;;;5.35;;
9789;SDS011;4934;50.852;8.098;2023-04-24T12:09:46;12.35;;;5.55;;
9789;SDS011;4934;50.852;8.098;2023-04-24T12:12:13;10.93;;;4.88;;
9789;SDS011;4934;50.852;8.098;2023-04-24T12:14:49;7.97;;;4.30;;
9789;SDS011;4934;50.852;8.098;2023-04-24T12:17:17;12.63;;;4.25;;
9789;SDS011;4934;50.852;8.098;2023-04-24T12:19:48;12.52;;;5.75;;
9789;SDS011;4934;50.852;8.098;2023-04-24T12:22:15;7.95;;;4.85;;
9789;SDS011;4934;50.852;8.098;2023-04-24T12:24:57;8.15;;;4.13;;
9789;SDS011;4934;50.852;8.098;2023-04-24T12:27:24;11.30;;;4.75;;
9789;SDS011;4934;50.852;8.098;2023-04-24T12:29:51;10.35;;;3.08;;
9789;SDS011;4934;50.852;8.098;2023-04-24T12:32:26;11.75;;;4.28;;
9789;SDS011;4934;50.852;8.098;2023-04-24T12:34:52;7.10;;;3.47;;
9789;SDS011;4934;50.852;8.098;2023-04-24T12:37:20;6.57;;;3.70;;
9789;SDS011;4934;50.852;8.098;2023-04-24T12:42:26;6.55;;;3.50;;
9789;SDS011;4934;50.852;8.098;2023-04-24T12:44:56;10.45;;;4.07;;
9789;SDS011;4934;50.852;8.098;2023-04-24T12:47:30;11.95;;;3.20;;
9789;SDS011;4934;50.852;8.098;2023-04-24T12:49:56;15.07;;;5.47;;
9789;SDS011;4934;50.852;8.098;2023-04-24T12:52:22;7.45;;;3.42;;
9789;SDS011;4934;50.852;8.098;2023-04-24T12:54:49;9.35;;;3.55;;
9789;SDS011;4934;50.852;8.098;2023-04-24T12:57:16;15.25;;;4.80;;
9789;SDS011;4934;50.852;8.098;2023-04-24T12:59:43;11.48;;;3.47;;
9789;SDS011;4934;50.852;8.098;2023-04-24T13:02:09;13.13;;;3.38;;
9789;SDS011;4934;50.852;8.098;2023-04-24T13:04:35;11.93;;;3.28;;
9789;SDS011;4934;50.852;8.098;2023-04-24T13:07:01;10.52;;;3.92;;
9789;SDS011;4934;50.852;8.098;2023-04-24T13:09:27;10.27;;;3.75;;
9789;SDS011;4934;50.852;8.098;2023-04-24T13:11:52;7.80;;;4.13;;
9789;SDS011;4934;50.852;8.098;2023-04-24T13:14:20;17.00;;;6.20;;
9789;SDS011;4934;50.852;8.098;2023-04-24T13:16:45;12.25;;;3.95;;
9789;SDS011;4934;50.852;8.098;2023-04-24T13:19:11;7.50;;;4.03;;
9789;SDS011;4934;50.852;8.098;2023-04-24T13:21:36;6.45;;;4.07;;
9789;SDS011;4934;50.852;8.098;2023-04-24T13:24:02;12.15;;;4.75;;
9789;SDS011;4934;50.852;8.098;2023-04-24T13:26:29;10.38;;;4.65;;
9789;SDS011;4934;50.852;8.098;2023-04-24T13:28:55;12.35;;;4.53;;
9789;SDS011;4934;50.852;8.098;2023-04-24T13:31:21;7.30;;;4.90;;
9789;SDS011;4934;50.852;8.098;2023-04-24T13:33:46;6.60;;;3.58;;
9789;SDS011;4934;50.852;8.098;2023-04-24T13:36:12;8.30;;;4.50;;
9789;SDS011;4934;50.852;8.098;2023-04-24T13:38:38;13.20;;;5.15;;
9789;SDS011;4934;50.852;8.098;2023-04-24T13:41:03;9.57;;;4.78;;
9789;SDS011;4934;50.852;8.098;2023-04-24T13:43:29;9.40;;;4.50;;
9789;SDS011;4934;50.852;8.098;2023-04-24T13:45:54;10.95;;;4.57;;
9789;SDS011;4934;50.852;8.098;2023-04-24T13:48:20;7.78;;;4.35;;
9789;SDS011;4934;50.852;8.098;2023-04-24T13:50:46;16.85;;;4.57;;
9789;SDS011;4934;50.852;8.098;2023-04-24T13:53:13;10.18;;;4.78;;
9789;SDS011;4934;50.852;8.098;2023-04-24T13:55:39;12.18;;;5.28;;
9789;SDS011;4934;50.852;8.098;2023-04-24T13:58:05;9.82;;;5.20;;
9789;SDS011;4934;50.852;8.098;2023-04-24T14:00:31;11.25;;;5.95;;
9789;SDS011;4934;50.852;8.098;2023-04-24T14:02:57;10.60;;;5.07;;
9789;SDS011;4934;50.852;8.098;2023-04-24T14:05:22;9.90;;;4.18;;
9789;SDS011;4934;50.852;8.098;2023-04-24T14:07:48;13.57;;;5.25;;
9789;SDS011;4934;50.852;8.098;2023-04-24T14:10:14;7.82;;;4.13;;
9789;SDS011;4934;50.852;8.098;2023-04-24T14:12:39;7.80;;;4.43;;
9789;SDS011;4934;50.852;8.098;2023-04-24T14:15:05;12.80;;;5.05;;
9789;SDS011;4934;50.852;8.098;2023-04-24T14:17:31;14.10;;;6.45;;
9789;SDS011;4934;50.852;8.098;2023-04-24T14:19:56;8.30;;;4.18;;
9789;SDS011;4934;50.852;8.098;2023-04-24T14:22:24;9.32;;;4.55;;
9789;SDS011;4934;50.852;8.098;2023-04-24T14:24:50;9.60;;;4.90;;
9789;SDS011;4934;50.852;8.098;2023-04-24T14:27:15;11.82;;;5.22;;
9789;SDS011;4934;50.852;8.098;2023-04-24T14:29:41;10.32;;;4.88;;
9789;SDS011;4934;50.852;8.098;2023-04-24T14:32:07;14.75;;;6.15;;
9789;SDS011;4934;50.852;8.098;2023-04-24T14:34:33;12.43;;;6.07;;
9789;SDS011;4934;50.852;8.098;2023-04-24T14:36:59;15.40;;;7.10;;
9789;SDS011;4934;50.852;8.098;2023-04-24T14:39:25;12.95;;;6.40;;
9789;SDS011;4934;50.852;8.098;2023-04-24T14:41:51;11.95;;;6.80;;
9789;SDS011;4934;50.852;8.098;2023-04-24T14:44:16;16.30;;;7.53;;
9789;SDS011;4934;50.852;8.098;2023-04-24T14:46:42;15.63;;;7.45;;
9789;SDS011;4934;50.852;8.098;2023-04-24T14:49:08;12.88;;;6.78;;
9789;SDS011;4934;50.852;8.098;2023-04-24T14:51:35;26.85;;;12.95;;
9789;SDS011;4934;50.852;8.098;2023-04-24T14:54:01;19.48;;;9.35;;
9789;SDS011;4934;50.852;8.098;2023-04-24T14:56:26;16.27;;;7.60;;
9789;SDS011;4934;50.852;8.098;2023-04-24T14:58:52;16.52;;;7.40;;
9789;SDS011;4934;50.852;8.098;2023-04-24T15:01:18;16.70;;;9.13;;
9789;SDS011;4934;50.852;8.098;2023-04-24T15:03:43;19.67;;;8.95;;
9789;SDS011;4934;50.852;8.098;2023-04-24T15:06:09;18.50;;;9.48;;
9789;SDS011;4934;50.852;8.098;2023-04-24T15:08:35;16.67;;;8.45;;
9789;SDS011;4934;50.852;8.098;2023-04-24T15:11:01;19.38;;;9.57;;
9789;SDS011;4934;50.852;8.098;2023-04-24T15:13:26;23.75;;;9.27;;
9789;SDS011;4934;50.852;8.098;2023-04-24T15:15:52;20.00;;;9.52;;
9789;SDS011;4934;50.852;8.098;2023-04-24T15:18:17;26.55;;;9.90;;
9789;SDS011;4934;50.852;8.098;2023-04-24T15:20:43;21.90;;;9.27;;
9789;SDS011;4934;50.852;8.098;2023-04-24T15:23:09;17.73;;;9.20;;
9789;SDS011;4934;50.852;8.098;2023-04-24T15:25:35;22.35;;;9.25;;
9789;SDS011;4934;50.852;8.098;2023-04-24T15:28:01;20.67;;;8.68;;
9789;SDS011;4934;50.852;8.098;2023-04-24T15:30:26;25.30;;;10.80;;
9789;SDS011;4934;50.852;8.098;2023-04-24T15:32:52;19.27;;;8.85;;
9789;SDS011;4934;50.852;8.098;2023-04-24T15:35:18;24.48;;;12.27;;
9789;SDS011;4934;50.852;8.098;2023-04-24T15:37:44;22.88;;;8.77;;